Gosberton, United Kingdom
Current Conditions -  °F | °C
As of 3:50 PM on Wednesday 26 Nov 2014 (Local Time) from EGXC Reporting Station
Moderate Rain Moderate Rain  
Wind Chill: 44°   Ceiling: 300
Heat Index: 46°   Visibility: 0.75mi
Dew Point: 46°   Wind: 6mph
Humidity: 100%   Direction: 80°E
Pressure: 29.83"   Gusts: NA
Location:  52.87°N, 0.16°W
Report Text: EGXC 261550Z 08005KT 1200 RADZ OVC003 08/08 Q1010 AMB TEMPO 0700 FG BKN002 RED
Loading
Personal Weather Stations






























Interactive Weather Map New forecast layout! Learn more

10-Day Weather Forecast

Advertisements
Track Severe Weather on mobile